Time;durP1;ratioP1;P1;durP2;ratioP2;P2;SDS_P1;SDS_P2;PMS_P1;PMS_P2;Temp;Humidity;BMP_temperature;BMP_pressure;BME280_temperature;BME280_humidity;BME280_pressure;Samples;Min_cycle;Max_cycle;Signal;HPM_P1;HPM_P2
2022/03/01 00:00:16;;;;;;;;;;;;;;;17.57;53.44;100599.41;2074296;28;19921;-62
2022/03/01 00:01:17;;;;;;;;;;;;;;;17.56;53.62;100599.53;2074339;28;19914;-63
2022/03/01 00:02:17;;;;;;;;;;;;;;;17.56;53.18;100597.69;2074306;28;19917;-62
2022/03/01 00:03:18;;;;;;;;;;;;;;;17.55;53.26;100593.22;2074258;28;19921;-63
2022/03/01 00:04:19;;;;;;;;;;;;;;;17.56;53.29;100603.16;2074456;28;19977;-64
2022/03/01 00:05:19;;;;;;;;;;;;;;;17.55;53.50;100604.13;2074497;28;19993;-63
2022/03/01 00:06:20;;;;;;;;;;;;;;;17.55;53.16;100601.41;2065693;28;19917;-64
2022/03/01 00:07:20;;;;;;;;;;;;;;;17.55;53.50;100600.53;2059397;28;19918;-62
2022/03/01 00:08:20;;;;;;;;;;;;;;;17.54;53.31;100605.13;2066304;28;19921;-63
2022/03/01 00:09:21;;;;;;;;;;;;;;;17.55;53.38;100604.13;2068913;28;20335;-64
2022/03/01 00:10:21;;;;;;;;;;;;;;;17.55;53.56;100605.97;2074427;28;20332;-63
2022/03/01 00:11:21;;;;;;;;;;;;;;;17.55;53.55;100606.84;2074240;28;19920;-63
2022/03/01 00:12:22;;;;;;;;;;;;;;;17.55;53.31;100601.41;2074434;28;19913;-63
2022/03/01 00:13:22;;;;;;;;;;;;;;;17.56;53.22;100602.25;2074039;28;19987;-62
2022/03/01 00:14:22;;;;;;;;;;;;;;;17.56;53.25;100608.59;2074493;28;19920;-62
2022/03/01 00:15:22;;;;;;;;;;;;;;;17.56;53.25;100608.59;2074551;28;19960;-63
2022/03/01 00:16:23;;;;;;;;;;;;;;;17.56;53.22;100608.59;2074398;28;19921;-63
2022/03/01 00:17:23;;;;;;;;;;;;;;;17.56;53.33;100603.16;2072346;28;20266;-63
2022/03/01 00:18:24;;;;;;;;;;;;;;;17.58;53.41;100616.63;2073746;28;19917;-63
2022/03/01 00:19:27;;;;;;;;;;;;;;;17.57;53.40;100610.31;2074218;28;19913;-62
2022/03/01 00:20:27;;;;;;;;;;;;;;;17.57;53.19;100610.31;2073968;28;19920;-62
2022/03/01 00:21:28;;;;;;;;;;;;;;;17.57;53.28;100610.31;2074059;28;19972;-63
2022/03/01 00:22:29;;;;;;;;;;;;;;;17.57;53.32;100602.13;2073999;28;20399;-63
2022/03/01 00:23:29;;;;;;;;;;;;;;;17.58;53.33;100603.84;2074212;28;20012;-63
2022/03/01 00:24:30;;;;;;;;;;;;;;;17.58;53.10;100595.69;2074518;28;19918;-63
2022/03/01 00:25:30;;;;;;;;;;;;;;;17.58;53.21;100603.84;2074080;28;20293;-63
2022/03/01 00:26:30;;;;;;;;;;;;;;;17.60;52.94;100602.88;2074069;28;19918;-62
2022/03/01 00:27:31;;;;;;;;;;;;;;;17.61;53.16;100604.59;2074181;28;20000;-62
2022/03/01 00:28:31;;;;;;;;;;;;;;;17.61;53.29;100601.88;2074105;28;19972;-63
2022/03/01 00:29:32;;;;;;;;;;;;;;;17.60;53.15;100602.88;2074224;28;19918;-63
2022/03/01 00:30:32;;;;;;;;;;;;;;;17.59;53.01;100607.47;2074294;28;20019;-62
2022/03/01 00:31:32;;;;;;;;;;;;;;;17.58;53.16;100601.13;2065508;28;19913;-62
2022/03/01 00:32:33;;;;;;;;;;;;;;;17.58;53.13;100605.72;2065432;28;19918;-62
2022/03/01 00:33:33;;;;;;;;;;;;;;;17.57;53.13;100607.59;2073902;28;19944;-62
2022/03/01 00:34:33;;;;;;;;;;;;;;;17.57;53.12;100602.13;2074211;28;19920;-63
2022/03/01 00:35:33;;;;;;;;;;;;;;;17.56;53.09;100605.88;2074338;28;19914;-63
2022/03/01 00:36:36;;;;;;;;;;;;;;;17.55;53.12;100606.84;2074214;28;19913;-62
2022/03/01 00:37:37;;;;;;;;;;;;;;;17.55;53.34;100601.41;2074097;28;19983;-63
2022/03/01 00:38:37;;;;;;;;;;;;;;;17.53;53.16;100600.66;2065305;28;19918;-63
2022/03/01 00:39:38;;;;;;;;;;;;;;;17.54;53.24;100599.69;2057274;28;19914;-63
2022/03/01 00:40:38;;;;;;;;;;;;;;;17.54;53.23;100605.13;2065108;28;19913;-64
2022/03/01 00:41:39;;;;;;;;;;;;;;;17.52;53.36;100604.38;2074004;28;20288;-63
2022/03/01 00:42:39;;;;;;;;;;;;;;;17.51;53.26;100599.91;2081324;28;19943;-63
2022/03/01 00:43:40;;;;;;;;;;;;;;;17.51;53.31;100594.44;2082004;28;19956;-63
2022/03/01 00:44:40;;;;;;;;;;;;;;;17.52;53.36;100606.25;2082321;28;19917;-63
2022/03/01 00:45:41;;;;;;;;;;;;;;;17.53;53.11;100597.91;2078072;28;19917;-63
2022/03/01 00:46:41;;;;;;;;;;;;;;;17.54;53.25;100609.69;2074113;28;19914;-63
2022/03/01 00:47:42;;;;;;;;;;;;;;;17.53;53.31;100603.38;2074218;28;19916;-63
2022/03/01 00:48:42;;;;;;;;;;;;;;;17.52;53.12;100601.66;2074102;28;19971;-63
2022/03/01 00:49:42;;;;;;;;;;;;;;;17.54;53.07;100599.69;2073998;28;20291;-64
2022/03/01 00:50:43;;;;;;;;;;;;;;;17.55;53.00;100598.66;2073898;28;19914;-63
2022/03/01 00:51:43;;;;;;;;;;;;;;;17.54;53.04;100599.69;2074260;28;20440;-63
2022/03/01 00:52:43;;;;;;;;;;;;;;;17.53;53.09;100599.78;2074108;28;19913;-63
2022/03/01 00:53:44;;;;;;;;;;;;;;;17.50;53.27;100603.63;2074159;28;20353;-63
2022/03/01 00:54:44;;;;;;;;;;;;;;;17.50;53.35;100598.19;2074088;28;19964;-63
2022/03/01 00:55:44;;;;;;;;;;;;;;;17.50;53.08;100592.72;2074099;28;19914;-63
2022/03/01 00:56:44;;;;;;;;;;;;;;;17.49;53.39;100593.75;2074092;28;20008;-63
2022/03/01 00:57:45;;;;;;;;;;;;;;;17.48;53.12;100589.25;2074129;28;19922;-63
2022/03/01 00:58:45;;;;;;;;;;;;;;;17.50;53.12;100600.91;2074062;28;19989;-63
2022/03/01 00:59:45;;;;;;;;;;;;;;;17.50;53.23;100587.28;2074116;28;19914;-63
2022/03/01 01:00:46;;;;;;;;;;;;;;;17.51;53.30;100596.31;2074193;28;19917;-63
2022/03/01 01:01:46;;;;;;;;;;;;;;;17.51;53.36;100599.91;2073700;28;19914;-62
2022/03/01 01:02:48;;;;;;;;;;;;;;;17.51;53.19;100596.31;2066039;28;19920;-63
2022/03/01 01:03:48;;;;;;;;;;;;;;;17.52;53.01;100598.06;2065903;28;19918;-62
2022/03/01 01:04:49;;;;;;;;;;;;;;;17.52;52.96;100595.34;2066045;28;19921;-62
2022/03/01 01:05:49;;;;;;;;;;;;;;;17.52;53.05;100595.34;2062797;28;20446;-63
2022/03/01 01:06:49;;;;;;;;;;;;;;;17.52;53.11;100596.19;2057291;28;20400;-62
2022/03/01 01:07:50;;;;;;;;;;;;;;;17.53;53.09;100597.06;2057256;28;19926;-63
2022/03/01 01:08:51;;;;;;;;;;;;;;;17.53;52.93;100597.91;2063837;28;19918;-63
2022/03/01 01:09:51;;;;;;;;;;;;;;;17.53;53.18;100587.03;2065275;28;19957;-63
2022/03/01 01:10:52;;;;;;;;;;;;;;;17.52;52.96;100593.47;2065284;28;19914;-62
2022/03/01 01:11:52;;;;;;;;;;;;;;;17.53;53.08;100588.88;2066000;28;20399;-63
2022/03/01 01:12:55;;;;;;;;;;;;;;;17.53;53.12;100591.63;2065788;28;20379;-63
2022/03/01 01:13:55;;;;;;;;;;;;;;;17.52;52.96;100590.75;2057493;28;19949;-63
2022/03/01 01:14:55;;;;;;;;;;;;;;;17.54;52.96;100588.78;2057453;28;20350;-63
2022/03/01 01:15:56;;;;;;;;;;;;;;;17.52;53.12;100588.03;2065806;28;20411;-62
2022/03/01 01:16:56;;;;;;;;;;;;;;;17.54;53.16;100587.88;2065887;28;19917;-62
2022/03/01 01:17:56;;;;;;;;;;;;;;;17.53;52.89;100587.03;2065913;28;19909;-63
2022/03/01 01:18:57;;;;;;;;;;;;;;;17.53;53.10;100592.47;2065824;28;19913;-63
2022/03/01 01:19:57;;;;;;;;;;;;;;;17.52;52.82;100596.19;2065991;28;19914;-62
2022/03/01 01:20:57;;;;;;;;;;;;;;;17.53;53.03;100592.47;2065913;28;19920;-63
2022/03/01 01:23:16;;;;;;;;;;;;;;;17.51;53.18;100594.44;2066176;28;19953;-63
2022/03/01 01:24:17;;;;;;;;;;;;;;;17.51;52.82;100590.88;2065740;28;19914;-63
2022/03/01 01:25:18;;;;;;;;;;;;;;;17.50;52.96;100590.00;2065914;28;19913;-63
2022/03/01 01:26:19;;;;;;;;;;;;;;;17.50;52.92;100595.47;2065824;28;19920;-64
2022/03/01 01:27:19;;;;;;;;;;;;;;;17.51;52.95;100593.59;2066033;28;19920;-64
2022/03/01 01:28:19;;;;;;;;;;;;;;;17.49;52.82;100596.47;2065961;28;19956;-64
2022/03/01 01:29:19;;;;;;;;;;;;;;;17.49;53.12;100595.56;2065949;28;19921;-62
2022/03/01 01:30:22;;;;;;;;;;;;;;;17.49;53.11;100591.00;2069034;28;19919;-63
2022/03/01 01:31:22;;;;;;;;;;;;;;;17.48;53.03;100589.25;2073908;28;19972;-63
2022/03/01 01:32:22;;;;;;;;;;;;;;;17.48;52.92;100589.25;2069458;28;19914;-62
2022/03/01 01:33:23;;;;;;;;;;;;;;;17.48;53.00;100589.25;2065653;28;20001;-62
2022/03/01 01:34:23;;;;;;;;;;;;;;;17.49;53.16;100590.13;2065951;28;19914;-62
2022/03/01 01:35:24;;;;;;;;;;;;;;;17.49;53.16;100596.47;2065211;28;19913;-63
2022/03/01 01:36:25;;;;;;;;;;;;;;;17.47;52.99;100590.28;2064772;28;20250;-63
2022/03/01 01:37:25;;;;;;;;;;;;;;;17.47;53.04;100579.38;2069924;28;19924;-63
2022/03/01 01:38:26;;;;;;;;;;;;;;;17.46;53.23;100585.78;2066790;28;20016;-63
2022/03/01 01:39:26;;;;;;;;;;;;;;;17.46;53.05;100596.69;2065969;28;19913;-63
2022/03/01 01:40:28;;;;;;;;;;;;;;;17.47;53.05;100587.53;2065840;28;19964;-62
2022/03/01 01:41:30;;;;;;;;;;;;;;;17.46;52.87;100583.06;2065777;28;19925;-62
2022/03/01 01:42:31;;;;;;;;;;;;;;;17.47;53.18;100587.53;2070302;28;19924;-63
2022/03/01 01:43:31;;;;;;;;;;;;;;;17.46;53.15;100591.25;2065731;28;19968;-63
2022/03/01 01:44:32;;;;;;;;;;;;;;;17.48;52.78;100593.84;2066568;28;20016;-63
2022/03/01 01:45:33;;;;;;;;;;;;;;;17.48;53.00;100594.72;2074074;28;19918;-64
2022/03/01 01:46:34;;;;;;;;;;;;;;;17.48;52.65;100594.72;2070265;28;19910;-63
2022/03/01 01:47:34;;;;;;;;;;;;;;;17.47;53.08;100600.31;2065825;28;19925;-64
2022/03/01 01:48:34;;;;;;;;;;;;;;;17.48;52.86;100594.72;2056597;28;19922;-65
2022/03/01 01:49:35;;;;;;;;;;;;;;;17.48;52.86;100588.41;2051166;28;20021;-65
2022/03/01 01:50:35;;;;;;;;;;;;;;;17.46;52.65;100593.97;2054704;28;19926;-64
2022/03/01 01:51:35;;;;;;;;;;;;;;;17.48;52.87;100589.25;2051610;28;19953;-64
2022/03/01 01:52:36;;;;;;;;;;;;;;;17.49;52.99;100596.47;2052959;28;20407;-64
2022/03/01 01:53:37;;;;;;;;;;;;;;;17.50;52.85;100589.16;2051245;28;20052;-62
2022/03/01 01:54:37;;;;;;;;;;;;;;;17.49;52.88;100591.00;2052406;28;20306;-63
2022/03/01 01:55:37;;;;;;;;;;;;;;;17.49;52.67;100591.00;2054540;28;19918;-63
2022/03/01 01:56:38;;;;;;;;;;;;;;;17.50;52.73;100586.41;2054810;28;19925;-63
2022/03/01 01:57:38;;;;;;;;;;;;;;;17.50;52.83;100584.56;2057697;28;19965;-63
2022/03/01 01:58:38;;;;;;;;;;;;;;;17.51;52.58;100588.13;2054684;28;19922;-63
2022/03/01 01:59:39;;;;;;;;;;;;;;;17.50;52.64;100587.28;2056610;28;20122;-63
2022/03/01 02:00:39;;;;;;;;;;;;;;;17.51;52.75;100588.13;2054233;28;19922;-63
2022/03/01 02:01:39;;;;;;;;;;;;;;;17.51;52.89;100588.13;2054325;28;20585;-63
2022/03/01 02:02:40;;;;;;;;;;;;;;;17.51;52.64;100591.72;2054387;28;20603;-63
2022/03/01 02:03:40;;;;;;;;;;;;;;;17.53;52.73;100589.75;2052639;28;19937;-63
2022/03/01 02:04:41;;;;;;;;;;;;;;;17.52;52.56;100590.75;2056746;28;19929;-63
2022/03/01 02:05:41;;;;;;;;;;;;;;;17.52;52.53;100588.03;2050060;28;19932;-63
2022/03/01 02:06:52;;;;;;;;;;;;;;;17.54;52.48;100594.22;2055583;28;19924;-63
2022/03/01 02:07:52;;;;;;;;;;;;;;;17.55;52.40;100590.50;2055812;28;20691;-63
2022/03/01 02:08:52;;;;;;;;;;;;;;;17.56;52.71;100584.06;2056783;28;20286;-63
2022/03/01 02:09:53;;;;;;;;;;;;;;;17.56;52.45;100592.25;2057258;28;20320;-64
2022/03/01 02:10:53;;;;;;;;;;;;;;;17.56;52.30;100581.34;2056347;28;20607;-64
2022/03/01 02:11:53;;;;;;;;;;;;;;;17.56;52.63;100592.25;2054256;28;20369;-64
2022/03/01 02:12:56;;;;;;;;;;;;;;;17.57;52.39;100584.91;2056304;28;19925;-64
2022/03/01 02:13:56;;;;;;;;;;;;;;;17.58;52.43;100579.31;2059061;28;19984;-64
2022/03/01 02:14:56;;;;;;;;;;;;;;;17.59;52.45;100580.22;2058550;28;20015;-64
2022/03/01 02:15:57;;;;;;;;;;;;;;;17.60;52.52;100586.53;2049225;28;19914;-64
2022/03/01 02:16:59;;;;;;;;;;;;;;;17.60;52.43;100586.53;2039700;28;19926;-64
2022/03/01 02:17:59;;;;;;;;;;;;;;;17.59;52.20;100582.94;2046092;28;20410;-64
2022/03/01 02:19:00;;;;;;;;;;;;;;;17.58;52.53;100584.78;2054516;28;20352;-64
2022/03/01 02:20:00;;;;;;;;;;;;;;;17.60;52.30;100581.06;2056762;28;20198;-62
2022/03/01 02:21:01;;;;;;;;;;;;;;;17.59;52.44;100580.22;2051913;28;20667;-63
2022/03/01 02:22:01;;;;;;;;;;;;;;;17.59;52.47;100580.22;2048135;28;20106;-62
2022/03/01 02:23:02;;;;;;;;;;;;;;;17.59;52.30;100580.22;2049110;28;19976;-62
2022/03/01 02:24:02;;;;;;;;;;;;;;;17.59;52.17;100580.22;2050645;28;19938;-63
2022/03/01 02:25:03;;;;;;;;;;;;;;;17.60;52.36;100586.53;2050154;28;19971;-63
2022/03/01 02:26:03;;;;;;;;;;;;;;;17.58;52.50;100584.78;2047241;28;19996;-62
2022/03/01 02:27:04;;;;;;;;;;;;;;;17.59;52.27;100585.66;2048820;28;19963;-62
2022/03/01 02:28:05;;;;;;;;;;;;;;;17.57;52.47;100577.59;2049308;28;20001;-62
2022/03/01 02:29:05;;;;;;;;;;;;;;;17.58;52.31;100573.88;2048673;28;19937;-62
2022/03/01 02:30:07;;;;;;;;;;;;;;;17.57;52.20;100585.78;2050391;28;19967;-62
2022/03/01 02:31:07;;;;;;;;;;;;;;;17.57;52.43;100583.06;2048274;28;19941;-63
2022/03/01 02:32:08;;;;;;;;;;;;;;;17.58;52.43;100578.47;2051243;28;19926;-63
2022/03/01 02:33:08;;;;;;;;;;;;;;;17.57;52.39;100583.06;2050435;28;19926;-64
2022/03/01 02:34:09;;;;;;;;;;;;;;;17.57;52.54;100582.19;2048138;28;19962;-62
2022/03/01 02:35:11;;;;;;;;;;;;;;;17.56;52.38;100575.88;2047069;28;19925;-63
2022/03/01 02:36:12;;;;;;;;;;;;;;;17.55;52.24;100579.59;2040326;28;20056;-62
2022/03/01 02:37:12;;;;;;;;;;;;;;;17.55;52.36;100573.28;2035692;28;19918;-63
2022/03/01 02:38:13;;;;;;;;;;;;;;;17.55;52.24;100579.59;2048421;28;19932;-63
2022/03/01 02:39:13;;;;;;;;;;;;;;;17.55;52.41;100579.59;2047693;28;19992;-63
2022/03/01 02:40:14;;;;;;;;;;;;;;;17.56;52.30;100578.59;2048173;28;20301;-63
2022/03/01 02:41:14;;;;;;;;;;;;;;;17.55;52.38;100576.84;2049876;28;20008;-63
2022/03/01 02:42:14;;;;;;;;;;;;;;;17.55;52.44;100574.13;2047819;28;20017;-62
2022/03/01 02:43:16;;;;;;;;;;;;;;;17.56;52.15;100581.34;2048774;28;19913;-62
2022/03/01 02:44:17;;;;;;;;;;;;;;;17.55;52.25;100579.59;2048004;28;20194;-62
2022/03/01 02:45:18;;;;;;;;;;;;;;;17.55;52.21;100581.44;2049226;28;20251;-63
2022/03/01 02:46:18;;;;;;;;;;;;;;;17.55;52.31;100576.84;2051305;28;19945;-63
2022/03/01 02:47:19;;;;;;;;;;;;;;;17.54;52.49;100577.88;2049722;28;19922;-64
2022/03/01 02:48:19;;;;;;;;;;;;;;;17.54;52.18;100582.44;2049924;28;19971;-64
2022/03/01 02:49:19;;;;;;;;;;;;;;;17.53;52.23;100581.56;2050404;28;19988;-64
2022/03/01 02:50:20;;;;;;;;;;;;;;;17.54;52.25;100577.88;2050362;28;20032;-62
2022/03/01 02:51:20;;;;;;;;;;;;;;;17.51;52.36;100583.56;2049840;28;19928;-63
2022/03/01 02:52:21;;;;;;;;;;;;;;;17.52;52.50;100582.56;2049102;28;19929;-63
2022/03/01 02:53:21;;;;;;;;;;;;;;;17.52;52.26;100587.16;2049334;28;19921;-66
2022/03/01 02:54:21;;;;;;;;;;;;;;;17.50;52.52;100581.84;2045359;28;19929;-65
2022/03/01 02:55:22;;;;;;;;;;;;;;;17.50;52.42;100583.69;2048129;28;19933;-66
2022/03/01 02:56:22;;;;;;;;;;;;;;;17.50;52.36;100580.97;2041995;28;20324;-65
2022/03/01 02:57:24;;;;;;;;;;;;;;;17.49;52.35;100582.84;2040537;28;19928;-65
2022/03/01 02:58:25;;;;;;;;;;;;;;;17.48;52.34;100589.25;2057999;28;20455;-66
2022/03/01 02:59:25;;;;;;;;;;;;;;;17.47;52.63;100584.81;2056262;28;21292;-67
2022/03/01 03:00:25;;;;;;;;;;;;;;;17.48;52.47;100593.84;2053638;28;20349;-65
2022/03/01 03:01:27;;;;;;;;;;;;;;;17.47;52.52;100593.00;2060359;28;19921;-66
2022/03/01 03:02:28;;;;;;;;;;;;;;;17.48;52.51;100588.41;2057387;28;20004;-66
2022/03/01 03:03:28;;;;;;;;;;;;;;;17.47;52.37;100587.53;2058321;28;20736;-66
2022/03/01 03:04:29;;;;;;;;;;;;;;;17.47;52.67;100584.81;2051081;28;20241;-66
2022/03/01 03:05:30;;;;;;;;;;;;;;;17.49;52.43;100590.13;2052806;28;19926;-65
2022/03/01 03:06:30;;;;;;;;;;;;;;;17.47;52.38;100584.81;2057430;28;20742;-66
2022/03/01 03:07:30;;;;;;;;;;;;;;;17.48;52.47;100580.22;2056576;28;19924;-66
2022/03/01 03:08:31;;;;;;;;;;;;;;;17.48;52.61;100588.41;2057717;28;20460;-66
2022/03/01 03:09:32;;;;;;;;;;;;;;;17.47;52.43;100578.50;2047713;28;19922;-66
2022/03/01 03:10:33;;;;;;;;;;;;;;;17.47;52.36;100587.53;2048582;28;19949;-66
2022/03/01 03:11:33;;;;;;;;;;;;;;;17.48;52.68;100583.81;2058331;28;19917;-66
2022/03/01 03:12:33;;;;;;;;;;;;;;;17.47;52.43;100587.53;2058114;28;20846;-66
2022/03/01 03:13:34;;;;;;;;;;;;;;;17.47;52.54;100576.66;2057598;28;19944;-66
2022/03/01 03:14:35;;;;;;;;;;;;;;;17.47;52.44;100579.38;2055775;28;19926;-66
2022/03/01 03:15:37;;;;;;;;;;;;;;;17.47;52.43;100587.53;2056282;28;19925;-66
2022/03/01 03:16:38;;;;;;;;;;;;;;;17.48;52.43;100583.81;2059035;28;20029;-66
2022/03/01 03:17:38;;;;;;;;;;;;;;;17.48;52.29;100585.69;2054089;28;20109;-66
2022/03/01 03:18:38;;;;;;;;;;;;;;;17.47;52.52;100582.09;2058760;28;19921;-66
2022/03/01 03:19:38;;;;;;;;;;;;;;;17.49;52.48;100585.56;2054948;28;19910;-65
2022/03/01 03:20:39;;;;;;;;;;;;;;;17.47;52.28;100584.81;2055407;28;20017;-65
2022/03/01 03:21:40;;;;;;;;;;;;;;;17.48;52.53;100588.41;2050279;28;19945;-66
2022/03/01 03:22:40;;;;;;;;;;;;;;;17.47;52.56;100581.22;2047833;28;19922;-65
2022/03/01 03:23:40;;;;;;;;;;;;;;;17.45;52.51;100583.22;2058779;28;19929;-65
2022/03/01 03:24:41;;;;;;;;;;;;;;;17.47;52.53;100579.38;2057258;28;19929;-66
2022/03/01 03:25:41;;;;;;;;;;;;;;;17.46;52.31;100574.91;2056379;28;19927;-65
2022/03/01 03:26:41;;;;;;;;;;;;;;;17.45;52.48;100584.06;2058868;28;19926;-66
2022/03/01 03:27:42;;;;;;;;;;;;;;;17.46;52.63;100576.75;2045672;28;20008;-66
2022/03/01 03:28:43;;;;;;;;;;;;;;;17.45;52.17;100584.06;2049815;28;19922;-65
2022/03/01 03:29:43;;;;;;;;;;;;;;;17.44;52.35;100579.63;2056020;28;19917;-65
2022/03/01 03:30:43;;;;;;;;;;;;;;;17.43;52.66;100580.59;2057364;28;19932;-66
2022/03/01 03:31:44;;;;;;;;;;;;;;;17.42;52.52;100578.88;2058178;28;19918;-66
2022/03/01 03:32:44;;;;;;;;;;;;;;;17.42;52.51;100573.44;2054910;28;20288;-66
2022/03/01 03:33:45;;;;;;;;;;;;;;;17.42;52.56;100573.44;2058831;28;19914;-66
2022/03/01 03:34:45;;;;;;;;;;;;;;;17.41;52.64;100571.69;2057351;28;19925;-66
2022/03/01 03:35:45;;;;;;;;;;;;;;;17.40;52.67;100572.69;2057634;28;19917;-66
2022/03/01 03:36:46;;;;;;;;;;;;;;;17.40;52.70;100571.84;2048640;28;20025;-66
2022/03/01 03:37:46;;;;;;;;;;;;;;;17.40;52.70;100567.25;2046373;28;20295;-66
2022/03/01 03:38:46;;;;;;;;;;;;;;;17.39;52.63;100568.22;2050773;28;20036;-66
2022/03/01 03:39:47;;;;;;;;;;;;;;;17.39;52.37;100568.22;2047256;28;20203;-66
2022/03/01 03:40:47;;;;;;;;;;;;;;;17.39;52.77;100573.66;2057967;28;20319;-66
2022/03/01 03:41:48;;;;;;;;;;;;;;;17.39;52.70;100568.22;2057244;28;20031;-66
2022/03/01 03:42:48;;;;;;;;;;;;;;;17.39;52.48;100572.81;2054289;28;19921;-66
2022/03/01 03:43:48;;;;;;;;;;;;;;;17.39;52.61;100573.66;2058163;28;20729;-66
2022/03/01 03:44:49;;;;;;;;;;;;;;;17.39;52.60;100562.75;2055973;28;20415;-67
2022/03/01 03:45:49;;;;;;;;;;;;;;;17.39;52.54;100572.81;2056553;28;20470;-67
2022/03/01 03:46:49;;;;;;;;;;;;;;;17.38;52.74;100566.50;2057149;28;19921;-66
2022/03/01 03:47:49;;;;;;;;;;;;;;;17.38;52.60;100571.94;2057514;28;20078;-66
2022/03/01 03:48:50;;;;;;;;;;;;;;;17.36;52.73;100574.78;2055819;28;20083;-67
2022/03/01 03:49:50;;;;;;;;;;;;;;;17.35;52.79;100577.66;2058020;28;20545;-67
2022/03/01 03:50:51;;;;;;;;;;;;;;;17.35;52.57;100574.94;2055294;28;19922;-66
2022/03/01 03:51:51;;;;;;;;;;;;;;;17.35;52.53;100573.06;2053594;28;19928;-66
2022/03/01 03:52:51;;;;;;;;;;;;;;;17.35;52.71;100575.78;2055484;28;19971;-66
2022/03/01 03:53:52;;;;;;;;;;;;;;;17.37;52.55;100581.13;2055991;28;20143;-66
2022/03/01 03:54:52;;;;;;;;;;;;;;;17.37;52.64;100575.69;2058798;28;19921;-67
2022/03/01 03:55:52;;;;;;;;;;;;;;;17.38;52.64;100574.69;2055475;28;19917;-66
2022/03/01 03:56:53;;;;;;;;;;;;;;;17.38;52.44;100566.50;2055814;28;19914;-66
2022/03/01 03:57:53;;;;;;;;;;;;;;;17.39;52.31;100580.97;2053785;28;19925;-66
2022/03/01 03:58:55;;;;;;;;;;;;;;;17.39;52.42;100570.94;2058103;28;19921;-67
2022/03/01 03:59:55;;;;;;;;;;;;;;;17.40;52.43;100569.97;2056720;28;19929;-66
2022/03/01 04:00:56;;;;;;;;;;;;;;;17.40;52.43;100569.97;2052123;28;19913;-66
2022/03/01 04:01:56;;;;;;;;;;;;;;;17.41;52.46;100574.41;2047357;28;19941;-66
2022/03/01 04:02:57;;;;;;;;;;;;;;;17.41;52.24;100570.81;2044837;28;19926;-66
2022/03/01 04:03:58;;;;;;;;;;;;;;;17.41;52.51;100582.59;2051272;28;20382;-66
2022/03/01 04:04:59;;;;;;;;;;;;;;;17.41;52.52;100568.97;2050826;28;19929;-66
2022/03/01 04:05:59;;;;;;;;;;;;;;;17.41;52.50;100571.69;2045950;28;20009;-66
2022/03/01 04:06:59;;;;;;;;;;;;;;;17.42;52.55;100580.72;2049434;28;20621;-66
2022/03/01 04:08:00;;;;;;;;;;;;;;;17.42;52.48;100578.00;2054820;28;19921;-66
2022/03/01 04:09:01;;;;;;;;;;;;;;;17.44;52.37;100576.91;2051524;28;19953;-66
2022/03/01 04:10:01;;;;;;;;;;;;;;;17.42;52.45;100576.16;2054803;28;20363;-66
2022/03/01 04:11:01;;;;;;;;;;;;;;;17.43;52.29;100572.44;2057287;28;19961;-66
2022/03/01 04:12:02;;;;;;;;;;;;;;;17.43;52.36;100577.88;2054385;28;19928;-66
2022/03/01 04:13:02;;;;;;;;;;;;;;;17.42;52.31;100576.16;2057240;28;20024;-66
2022/03/01 04:14:03;;;;;;;;;;;;;;;17.42;52.46;100569.81;2054922;28;19921;-66
2022/03/01 04:15:04;;;;;;;;;;;;;;;17.42;52.40;100573.44;2050678;28;20396;-66
2022/03/01 04:16:04;;;;;;;;;;;;;;;17.41;52.49;100570.81;2046098;28;19999;-66
2022/03/01 04:17:05;;;;;;;;;;;;;;;17.41;52.24;100571.69;2057119;28;19921;-67
2022/03/01 04:18:05;;;;;;;;;;;;;;;17.41;52.21;100568.97;2048128;28;20057;-66
2022/03/01 04:19:08;;;;;;;;;;;;;;;17.40;52.50;100569.13;2040607;28;20345;-66
2022/03/01 04:20:09;;;;;;;;;;;;;;;17.39;52.38;100568.22;2049163;28;20383;-67
2022/03/01 04:21:10;;;;;;;;;;;;;;;17.40;52.46;100569.13;2054350;28;20249;-65
2022/03/01 04:22:10;;;;;;;;;;;;;;;17.39;52.35;100562.75;2057532;28;20578;-66
2022/03/01 04:23:11;;;;;;;;;;;;;;;17.41;52.54;100576.28;2043291;28;20388;-66
2022/03/01 04:24:11;;;;;;;;;;;;;;;17.39;52.56;100562.75;2045687;28;19922;-65
2022/03/01 04:25:11;;;;;;;;;;;;;;;17.39;52.31;100568.22;2056641;28;20595;-67
2022/03/01 04:26:12;;;;;;;;;;;;;;;17.41;52.34;100571.69;2054208;28;20003;-66
2022/03/01 04:27:12;;;;;;;;;;;;;;;17.40;52.46;100563.66;2057378;28;20024;-66
2022/03/01 04:28:12;;;;;;;;;;;;;;;17.39;52.44;100568.22;2055228;28;19928;-66
2022/03/01 04:29:13;;;;;;;;;;;;;;;17.39;52.45;100567.34;2055239;28;19925;-66
2022/03/01 04:30:15;;;;;;;;;;;;;;;17.38;52.39;100568.38;2056870;28;20638;-67
2022/03/01 04:31:15;;;;;;;;;;;;;;;17.37;52.35;100570.22;2056464;28;19975;-68
2022/03/01 04:32:15;;;;;;;;;;;;;;;17.38;52.29;100571.09;2048595;28;20008;-65
2022/03/01 04:33:15;;;;;;;;;;;;;;;17.38;52.31;100577.41;2047802;28;19952;-66
2022/03/01 04:34:16;;;;;;;;;;;;;;;17.38;52.49;100571.09;2057498;28;19913;-66
2022/03/01 04:35:16;;;;;;;;;;;;;;;17.37;52.35;100575.69;2054390;28;20714;-66
2022/03/01 04:36:16;;;;;;;;;;;;;;;17.37;52.32;100575.69;2058420;28;19921;-66
2022/03/01 04:37:17;;;;;;;;;;;;;;;17.37;52.38;100572.97;2053699;28;19921;-66
2022/03/01 04:38:17;;;;;;;;;;;;;;;17.37;52.31;100575.69;2055464;28;19925;-67
2022/03/01 04:39:18;;;;;;;;;;;;;;;17.36;52.49;100580.25;2057053;28;20016;-66
2022/03/01 04:40:19;;;;;;;;;;;;;;;17.35;52.35;100572.22;2055640;28;20008;-67
2022/03/01 04:41:19;;;;;;;;;;;;;;;17.34;52.47;100576.81;2057719;28;19925;-65
2022/03/01 04:42:20;;;;;;;;;;;;;;;17.33;52.39;100571.47;2054737;28;19921;-66
2022/03/01 04:43:20;;;;;;;;;;;;;;;17.33;52.57;100574.19;2052190;28;19921;-66
2022/03/01 04:44:21;;;;;;;;;;;;;;;17.34;52.47;100578.63;2057774;28;19929;-65
2022/03/01 04:45:21;;;;;;;;;;;;;;;17.33;52.43;100575.06;2053448;28;19918;-66
2022/03/01 04:46:21;;;;;;;;;;;;;;;17.33;52.49;100585.94;2056099;28;19921;-66
2022/03/01 04:47:21;;;;;;;;;;;;;;;17.34;52.45;100586.81;2056161;28;20027;-66
2022/03/01 04:48:22;;;;;;;;;;;;;;;17.33;52.62;100585.09;2056929;28;19925;-66
2022/03/01 04:49:22;;;;;;;;;;;;;;;17.33;52.40;100585.09;2056524;28;19921;-65
2022/03/01 04:50:23;;;;;;;;;;;;;;;17.34;52.61;100579.53;2055084;28;19922;-66
2022/03/01 04:51:23;;;;;;;;;;;;;;;17.35;52.40;100583.13;2047592;28;19922;-66
2022/03/01 04:52:23;;;;;;;;;;;;;;;17.34;52.40;100584.97;2052400;28;19921;-66
2022/03/01 04:53:24;;;;;;;;;;;;;;;17.36;52.39;100579.38;2055737;28;19925;-66
2022/03/01 04:54:24;;;;;;;;;;;;;;;17.36;52.44;100582.09;2055671;28;19921;-66
2022/03/01 04:55:24;;;;;;;;;;;;;;;17.37;52.46;100586.59;2058973;28;21077;-66
2022/03/01 04:56:25;;;;;;;;;;;;;;;17.36;52.55;100582.97;2054930;28;20356;-66
2022/03/01 04:57:25;;;;;;;;;;;;;;;17.37;52.35;100592.03;2055258;28;20771;-66
2022/03/01 04:58:26;;;;;;;;;;;;;;;17.38;52.40;100588.31;2055805;28;19921;-64
2022/03/01 04:59:26;;;;;;;;;;;;;;;17.38;52.56;100582.84;2056683;28;20277;-65
2022/03/01 05:00:26;;;;;;;;;;;;;;;17.39;52.47;100580.97;2057268;28;20016;-66
2022/03/01 05:01:27;;;;;;;;;;;;;;;17.38;52.58;100587.44;2056248;28;19949;-66
2022/03/01 05:02:27;;;;;;;;;;;;;;;17.39;52.52;100583.72;2054251;28;19921;-66
2022/03/01 05:03:27;;;;;;;;;;;;;;;17.38;52.32;100574.69;2055648;28;19925;-66
2022/03/01 05:04:28;;;;;;;;;;;;;;;17.38;52.43;100582.84;2054089;28;20044;-66
2022/03/01 05:05:28;;;;;;;;;;;;;;;17.38;52.56;100580.13;2055521;28;19925;-66
2022/03/01 05:06:30;;;;;;;;;;;;;;;17.39;52.38;100578.25;2052895;28;19921;-65
2022/03/01 05:07:30;;;;;;;;;;;;;;;17.38;52.53;100585.56;2056553;28;20012;-66
2022/03/01 05:08:30;;;;;;;;;;;;;;;17.40;52.42;100582.72;2053227;28;19928;-66
2022/03/01 05:09:31;;;;;;;;;;;;;;;17.39;52.16;100584.56;2058200;28;19921;-66
2022/03/01 05:10:31;;;;;;;;;;;;;;;17.40;52.28;100580.00;2046692;28;19922;-65
2022/03/01 05:11:31;;;;;;;;;;;;;;;17.40;52.36;100586.31;2049665;28;19968;-66